Time;durP1;ratioP1;P1;durP2;ratioP2;P2;SDS_P1;SDS_P2;PMS_P1;PMS_P2;Temp;Humidity;BMP_temperature;BMP_pressure;BME280_temperature;BME280_humidity;BME280_pressure;Samples;Min_cycle;Max_cycle;Signal;HPM_P1;HPM_P2
2022/08/14 00:01:52;;;;;;;;;;;24.80;62.00;;;;;;8433979;28;19924;-69
2022/08/14 00:05:56;;;;;;;;;;;24.80;62.10;;;;;;8417272;28;19924;-70
2022/08/14 00:10:01;;;;;;;;;;;24.80;62.20;;;;;;8441607;28;19936;-70
2022/08/14 00:14:24;;;;;;;;;;;24.80;62.30;;;;;;8432002;28;19932;-70
2022/08/14 00:18:27;;;;;;;;;;;24.80;62.40;;;;;;8433752;28;19928;-69
2022/08/14 00:22:31;;;;;;;;;;;24.70;62.60;;;;;;8441561;28;19931;-70
2022/08/14 00:26:53;;;;;;;;;;;24.60;62.70;;;;;;8404329;28;20018;-70
2022/08/14 00:30:56;;;;;;;;;;;24.50;62.80;;;;;;8421922;28;19939;-70
2022/08/14 00:35:00;;;;;;;;;;;24.50;63.00;;;;;;8407178;28;20401;-70
2022/08/14 00:39:02;;;;;;;;;;;24.40;63.00;;;;;;8428467;28;19968;-69
2022/08/14 00:43:04;;;;;;;;;;;24.30;63.20;;;;;;8440025;28;19928;-69
2022/08/14 00:47:07;;;;;;;;;;;24.30;63.40;;;;;;8421413;28;19931;-70
2022/08/14 00:51:11;;;;;;;;;;;24.20;63.50;;;;;;8438604;28;19924;-70
2022/08/14 00:55:13;;;;;;;;;;;24.20;63.70;;;;;;8419173;28;19924;-69
2022/08/14 00:59:14;;;;;;;;;;;24.10;63.80;;;;;;8420008;28;20000;-70
2022/08/14 01:03:17;;;;;;;;;;;24.00;64.70;;;;;;8437792;28;19924;-69
2022/08/14 01:07:20;;;;;;;;;;;24.00;64.20;;;;;;8411810;28;20311;-69
2022/08/14 01:11:23;;;;;;;;;;;23.90;64.30;;;;;;8430510;28;19924;-69
2022/08/14 01:15:24;;;;;;;;;;;23.80;64.50;;;;;;8412677;28;19924;-69
2022/08/14 01:23:54;;;;;;;;;;;23.80;65.00;;;;;;8425804;28;20363;-69
2022/08/14 01:27:57;;;;;;;;;;;23.70;65.10;;;;;;8427990;28;19931;-70
2022/08/14 01:32:03;;;;;;;;;;;23.70;65.40;;;;;;8438207;28;20405;-69
2022/08/14 01:36:05;;;;;;;;;;;23.60;65.50;;;;;;8414329;28;20364;-69
2022/08/14 01:40:08;;;;;;;;;;;23.50;65.70;;;;;;8414330;28;20070;-69
2022/08/14 01:44:14;;;;;;;;;;;23.50;66.00;;;;;;8439070;28;19924;-69
2022/08/14 01:48:34;;;;;;;;;;;23.40;66.10;;;;;;8430389;28;19934;-69
2022/08/14 01:52:38;;;;;;;;;;;23.40;66.40;;;;;;8426925;28;20019;-69
2022/08/14 01:57:00;;;;;;;;;;;23.40;66.60;;;;;;8416297;28;19967;-69
2022/08/14 02:01:03;;;;;;;;;;;23.40;66.80;;;;;;8422091;28;19929;-69
2022/08/14 02:05:07;;;;;;;;;;;23.30;66.90;;;;;;8417899;28;19985;-69
2022/08/14 02:09:08;;;;;;;;;;;23.30;67.10;;;;;;8447820;28;19955;-69
2022/08/14 02:13:19;;;;;;;;;;;23.20;67.30;;;;;;8435455;28;20305;-70
2022/08/14 02:17:22;;;;;;;;;;;23.20;67.50;;;;;;8418918;28;19924;-70
2022/08/14 02:21:24;;;;;;;;;;;23.20;67.70;;;;;;8439616;28;19924;-69
2022/08/14 02:25:26;;;;;;;;;;;23.20;68.00;;;;;;8426629;28;19932;-69
2022/08/14 02:29:31;;;;;;;;;;;23.20;68.90;;;;;;8452059;28;19931;-70
2022/08/14 02:33:53;;;;;;;;;;;23.10;68.40;;;;;;8430284;28;20042;-70
2022/08/14 02:37:55;;;;;;;;;;;23.10;68.60;;;;;;8413786;28;19931;-69
2022/08/14 02:41:58;;;;;;;;;;;23.00;68.90;;;;;;8430046;28;19931;-70
2022/08/14 02:46:00;;;;;;;;;;;23.00;69.10;;;;;;8433808;28;19940;-69
2022/08/14 02:50:01;;;;;;;;;;;22.90;69.30;;;;;;8447072;28;19924;-70
2022/08/14 02:54:07;;;;;;;;;;;22.80;69.50;;;;;;8411234;28;19931;-69
2022/08/14 02:58:09;;;;;;;;;;;22.80;69.80;;;;;;8421844;28;20374;-69
2022/08/14 03:02:11;;;;;;;;;;;22.70;70.10;;;;;;8439189;28;19932;-69
2022/08/14 03:06:33;;;;;;;;;;;22.70;70.30;;;;;;8408591;28;20470;-69
2022/08/14 03:10:55;;;;;;;;;;;22.50;70.40;;;;;;8417940;28;20383;-69
2022/08/14 03:15:01;;;;;;;;;;;22.50;70.60;;;;;;8431721;28;19935;-69
2022/08/14 03:19:06;;;;;;;;;;;22.40;70.80;;;;;;8435596;28;19924;-70
2022/08/14 03:23:08;;;;;;;;;;;22.30;71.00;;;;;;8421618;28;19924;-70
2022/08/14 03:27:12;;;;;;;;;;;22.20;71.20;;;;;;8407199;28;19924;-69
2022/08/14 03:31:15;;;;;;;;;;;22.20;71.40;;;;;;8424129;28;20255;-69
2022/08/14 03:35:18;;;;;;;;;;;22.10;71.60;;;;;;8439643;27;19930;-69
2022/08/14 03:39:21;;;;;;;;;;;22.10;71.80;;;;;;8424709;28;19939;-69
2022/08/14 03:43:25;;;;;;;;;;;22.00;72.00;;;;;;8436702;28;19923;-70
2022/08/14 03:47:29;;;;;;;;;;;22.00;72.20;;;;;;8455531;28;19927;-69
2022/08/14 03:51:47;;;;;;;;;;;21.90;72.40;;;;;;8419730;28;19925;-69
2022/08/14 03:55:48;;;;;;;;;;;21.90;72.60;;;;;;8449418;28;19927;-69
2022/08/14 03:59:50;;;;;;;;;;;21.80;72.80;;;;;;8434634;28;19932;-69
2022/08/14 04:03:53;;;;;;;;;;;21.70;73.00;;;;;;8438443;28;19944;-69
2022/08/14 04:07:55;;;;;;;;;;;21.70;73.30;;;;;;8425639;28;19986;-69
2022/08/14 04:12:08;;;;;;;;;;;21.60;73.50;;;;;;8420515;28;19928;-69
2022/08/14 04:16:15;;;;;;;;;;;21.60;73.70;;;;;;8414033;28;19988;-69
2022/08/14 04:20:17;;;;;;;;;;;21.50;73.90;;;;;;8438687;28;19925;-69
2022/08/14 04:24:27;;;;;;;;;;;21.40;74.70;;;;;;8410641;28;19924;-69
2022/08/14 04:28:30;;;;;;;;;;;21.40;74.30;;;;;;8432947;28;19924;-69
2022/08/14 04:32:51;;;;;;;;;;;21.30;74.50;;;;;;8435537;28;20401;-69
2022/08/14 04:45:51;;;;;;;;;;;21.10;75.00;;;;;;8425262;28;20315;-69
2022/08/14 04:49:53;;;;;;;;;;;21.10;75.30;;;;;;8442978;28;20351;-69
2022/08/14 04:53:58;;;;;;;;;;;21.10;75.60;;;;;;8431074;28;20402;-69
2022/08/14 04:58:02;;;;;;;;;;;21.10;75.80;;;;;;8449000;28;20362;-69
2022/08/14 05:02:03;;;;;;;;;;;21.10;76.10;;;;;;8427211;28;19924;-69
2022/08/14 05:06:06;;;;;;;;;;;21.10;76.40;;;;;;8419567;28;19929;-69
2022/08/14 05:10:28;;;;;;;;;;;21.10;76.70;;;;;;8439273;28;19963;-69
2022/08/14 05:14:32;;;;;;;;;;;21.10;77.00;;;;;;8432589;28;19995;-69
2022/08/14 05:18:48;;;;;;;;;;;21.20;77.30;;;;;;8420168;28;19931;-69
2022/08/14 05:23:11;;;;;;;;;;;21.20;77.60;;;;;;8444510;28;20023;-69
2022/08/14 05:27:12;;;;;;;;;;;21.30;77.90;;;;;;8422235;28;19928;-69
2022/08/14 05:31:18;;;;;;;;;;;21.30;78.20;;;;;;8431611;28;19924;-69
2022/08/14 05:35:21;;;;;;;;;;;21.30;78.60;;;;;;8400028;28;19928;-70
2022/08/14 05:39:22;;;;;;;;;;;21.40;79.00;;;;;;8443724;28;19931;-70
2022/08/14 05:43:24;;;;;;;;;;;21.40;79.40;;;;;;8432573;28;20322;-69
2022/08/14 05:47:26;;;;;;;;;;;21.50;80.00;;;;;;8414402;28;19936;-69
2022/08/14 05:51:29;;;;;;;;;;;21.60;80.40;;;;;;8417221;28;19928;-69
2022/08/14 05:55:31;;;;;;;;;;;21.70;80.80;;;;;;8389669;28;24631;-69
2022/08/14 05:59:33;;;;;;;;;;;21.80;81.20;;;;;;8391556;28;19947;-69
2022/08/14 06:03:35;;;;;;;;;;;21.90;81.40;;;;;;8398494;28;19928;-69
2022/08/14 06:07:37;;;;;;;;;;;22.00;81.80;;;;;;8394146;28;20387;-69
2022/08/14 06:11:39;;;;;;;;;;;22.10;82.30;;;;;;8393799;28;19955;-69
2022/08/14 06:15:41;;;;;;;;;;;22.20;82.70;;;;;;8395699;28;20276;-69
2022/08/14 06:19:42;;;;;;;;;;;22.40;83.10;;;;;;8393129;28;19931;-69
2022/08/14 06:23:44;;;;;;;;;;;22.50;83.50;;;;;;8393935;28;19931;-69
2022/08/14 06:27:47;;;;;;;;;;;22.70;83.90;;;;;;8389592;28;20019;-69
2022/08/14 06:31:49;;;;;;;;;;;22.80;84.10;;;;;;8395918;28;20303;-69
2022/08/14 06:35:55;;;;;;;;;;;23.00;84.50;;;;;;8390023;28;19935;-69
2022/08/14 06:39:56;;;;;;;;;;;23.10;84.80;;;;;;8389402;28;19925;-69
2022/08/14 06:43:58;;;;;;;;;;;23.20;85.40;;;;;;8387319;28;19925;-69
2022/08/14 06:48:00;;;;;;;;;;;23.30;86.30;;;;;;8394517;28;20284;-69
2022/08/14 06:52:02;;;;;;;;;;;23.40;86.00;;;;;;8391798;28;20387;-69
2022/08/14 06:56:04;;;;;;;;;;;23.50;86.50;;;;;;8387813;28;20012;-69
2022/08/14 07:00:13;;;;;;;;;;;23.50;86.60;;;;;;8372021;28;19924;-69
2022/08/14 07:08:43;;;;;;;;;;;23.70;87.30;;;;;;8394210;28;19932;-69
2022/08/14 07:12:45;;;;;;;;;;;23.80;87.80;;;;;;8388608;28;19924;-69
2022/08/14 07:16:57;;;;;;;;;;;23.90;88.30;;;;;;8386931;28;19931;-69
2022/08/14 07:20:59;;;;;;;;;;;24.00;88.80;;;;;;8391302;28;19924;-69
2022/08/14 07:25:01;;;;;;;7.97;5.72;;;24.10;88.90;;;;;;8391944;28;20348;-69
2022/08/14 07:29:04;;;;;;;;;;;24.20;89.40;;;;;;8404263;28;20047;-69
2022/08/14 07:33:06;;;;;;;;;;;24.20;89.80;;;;;;8390859;28;19931;-70
2022/08/14 07:37:08;;;;;;;;;;;24.30;90.10;;;;;;8390566;28;20229;-69
2022/08/14 07:41:11;;;;;;;;;;;24.40;90.30;;;;;;8401950;27;20019;-69
2022/08/14 07:45:14;;;;;;;;;;;24.50;90.60;;;;;;8391735;28;19972;-70
2022/08/14 07:49:16;;;;;;;;;;;24.50;90.50;;;;;;8391289;28;19924;-69
2022/08/14 07:53:20;;;;;;;;;;;24.70;90.60;;;;;;8386117;28;19959;-69
2022/08/14 07:57:22;;;;;;;;;;;24.80;90.70;;;;;;8365060;28;19921;-70
2022/08/14 08:01:26;;;;;;;;;;;24.90;90.70;;;;;;8358842;28;20213;-69
2022/08/14 08:05:28;;;;;;;;;;;24.90;90.80;;;;;;8388921;28;20371;-69
2022/08/14 08:09:31;;;;;;;;;;;25.10;91.00;;;;;;8386467;28;20392;-70
2022/08/14 08:13:33;;;;;;;;;;;25.20;90.90;;;;;;8387751;28;19974;-69
2022/08/14 08:17:38;;;;;;;;;;;25.30;91.00;;;;;;8387350;28;20253;-69
2022/08/14 08:21:44;;;;;;;;;;;25.30;91.00;;;;;;8388779;28;19928;-69
2022/08/14 08:25:47;;;;;;;;;;;25.40;91.00;;;;;;8382138;28;20395;-69
2022/08/14 08:29:49;;;;;;;;;;;25.50;91.10;;;;;;8388068;28;19924;-70
2022/08/14 08:33:52;;;;;;;;;;;25.60;91.20;;;;;;8385085;28;20026;-69
2022/08/14 08:37:59;;;;;;;;;;;25.70;91.20;;;;;;8375964;28;20315;-70
2022/08/14 08:42:02;;;;;;;;;;;25.70;91.20;;;;;;8386783;28;20011;-69
2022/08/14 08:46:05;;;;;;;;;;;25.70;91.10;;;;;;8390376;28;19932;-70
2022/08/14 08:50:21;;;;;;;;;;;25.80;91.10;;;;;;8390304;28;19921;-69
2022/08/14 08:54:31;;;;;;;;;;;25.90;91.20;;;;;;8387187;28;19943;-70
2022/08/14 08:58:36;;;;;;;;;;;26.00;91.00;;;;;;8382029;28;19931;-70
2022/08/14 09:02:41;;;;;;;;;;;26.00;91.10;;;;;;8386881;28;19932;-69
2022/08/14 09:06:44;;;;;;;;;;;26.20;91.30;;;;;;8385839;28;20371;-70
2022/08/14 09:11:03;;;;;;;;;;;26.30;91.40;;;;;;8383815;28;24102;-69
2022/08/14 09:15:20;;;;;;;;;;;26.40;91.40;;;;;;8389937;28;19924;-69
2022/08/14 09:19:22;;;;;;;;;;;26.60;91.50;;;;;;8392836;28;19931;-69
2022/08/14 09:23:24;;;;;;;;;;;26.60;91.30;;;;;;8382028;28;20358;-69
2022/08/14 09:27:36;;;;;;;;;;;26.70;91.30;;;;;;8392632;28;19929;-69
2022/08/14 09:31:41;;;;;;;;;;;26.80;90.90;;;;;;8390760;28;20015;-70
2022/08/14 09:36:15;;;;;;;;;;;26.90;90.90;;;;;;8390364;28;19920;-69
2022/08/14 09:40:26;;;;;;;;;;;27.10;91.10;;;;;;8387053;28;19925;-70
2022/08/14 09:44:49;;;;;;;;;;;27.20;91.20;;;;;;8375730;28;19920;-69
2022/08/14 09:49:00;;;;;;;;;;;27.30;91.20;;;;;;8396786;28;19928;-69
2022/08/14 09:53:03;;;;;;;;;;;27.40;91.00;;;;;;8394029;28;19928;-70
2022/08/14 09:57:06;;;;;;;;;;;27.50;90.90;;;;;;8391608;28;19931;-69
2022/08/14 10:01:13;;;;;;;7.20;5.80;;;27.50;91.10;;;;;;8392024;28;19920;-69
2022/08/14 10:05:25;;;;;;;7.20;5.07;;;27.60;91.20;;;;;;8393870;28;24239;-69
2022/08/14 10:09:31;;;;;;;9.20;5.50;;;27.80;91.20;;;;;;8389272;28;20173;-69
2022/08/14 10:13:35;;;;;;;7.70;5.50;;;27.90;91.20;;;;;;8394682;28;20052;-69
2022/08/14 10:18:06;;;;;;;6.43;5.03;;;28.00;91.20;;;;;;8391920;28;20479;-69
2022/08/14 10:22:09;;;;;;;6.93;5.23;;;28.10;91.30;;;;;;8389815;28;20054;-69
2022/08/14 10:26:31;;;;;;;9.65;5.60;;;28.30;91.40;;;;;;8390829;28;20337;-70
2022/08/14 10:30:35;;;;;;;6.30;5.25;;;28.40;91.50;;;;;;8391721;28;20460;-70
2022/08/14 10:34:38;;;;;;;6.50;5.32;;;28.50;91.50;;;;;;8389602;28;20102;-69
2022/08/14 10:38:41;;;;;;;5.85;4.80;;;28.70;91.60;;;;;;8390805;28;20380;-69
2022/08/14 10:42:51;;;;;;;6.18;5.03;;;28.80;91.60;;;;;;8377715;28;20097;-70
2022/08/14 10:47:01;;;;;;;6.55;5.00;;;29.00;91.50;;;;;;8390745;28;20048;-69
2022/08/14 10:51:25;;;;;;;8.75;5.15;;;29.00;91.50;;;;;;8389218;28;20068;-69
2022/08/14 10:55:38;;;;;;;6.35;5.07;;;29.00;91.30;;;;;;8391323;28;20041;-69
2022/08/14 10:59:55;;;;;;;7.45;5.15;;;29.10;91.00;;;;;;8389031;28;20110;-69
2022/08/14 11:03:57;;;;;;;6.82;5.22;;;29.10;90.70;;;;;;8389837;28;20052;-69
2022/08/14 11:07:59;;;;;;;7.20;5.10;;;29.20;90.50;;;;;;8382050;28;20151;-69
2022/08/14 11:12:01;;;;;;;5.78;4.35;;;29.20;90.20;;;;;;8386662;28;20496;-69
2022/08/14 11:16:25;;;;;;;5.90;4.30;;;29.30;89.30;;;;;;8387394;28;20099;-69
2022/08/14 11:20:30;;;;;;;6.50;4.07;;;29.30;89.00;;;;;;8388424;28;20056;-70
2022/08/14 11:24:35;;;;;;;5.70;4.00;;;29.40;88.50;;;;;;8388728;28;20049;-69
2022/08/14 11:29:01;;;;;;;5.30;4.45;;;29.50;86.90;;;;;;8388327;28;20100;-69
2022/08/14 11:33:05;;;;;;;5.03;4.00;;;29.50;86.10;;;;;;8390588;28;20059;-69
2022/08/14 11:37:10;;;;;;;4.85;3.30;;;29.60;85.10;;;;;;8386132;28;20103;-69
2022/08/14 11:41:33;;;;;;;6.32;3.22;;;29.60;83.00;;;;;;8388769;28;20039;-70
2022/08/14 11:45:39;;;;;;;5.13;3.55;;;29.80;83.00;;;;;;8387616;28;20126;-70
2022/08/14 11:49:41;;;;;;;4.72;3.08;;;30.00;82.50;;;;;;8387773;28;20477;-69
2022/08/14 11:53:50;;;;;;;5.72;3.70;;;30.10;82.10;;;;;;8385485;28;20043;-69
2022/08/14 11:58:02;;;;;;;4.55;3.33;;;30.20;81.80;;;;;;8389104;28;20057;-69
2022/08/14 12:02:13;;;;;;;4.85;3.25;;;30.20;82.40;;;;;;8378432;28;20484;-70
2022/08/14 12:06:47;;;;;;;5.40;3.15;;;30.20;82.60;;;;;;8382556;28;20437;-70
2022/08/14 12:10:56;;;;;;;9.02;3.75;;;30.30;82.40;;;;;;8387448;28;20078;-70
2022/08/14 12:15:01;;;;;;;;;;;30.30;81.80;;;;;;8383546;28;20052;-70
2022/08/14 12:19:04;;;;;;;4.95;3.75;;;30.40;81.10;;;;;;8376963;28;19927;-70
2022/08/14 12:23:22;;;;;;;4.88;3.55;;;30.50;80.40;;;;;;8381764;28;20114;-70
2022/08/14 12:27:38;;;;;;;6.25;3.58;;;30.50;80.60;;;;;;8384699;28;20542;-70
2022/08/14 12:31:43;;;;;;;5.85;3.25;;;30.50;80.40;;;;;;8386061;28;20094;-69
2022/08/14 12:35:49;;;;;;;6.50;3.63;;;30.60;78.90;;;;;;8384477;28;20063;-69
2022/08/14 12:40:12;;;;;;;5.32;3.65;;;30.60;78.80;;;;;;8386143;28;20139;-70
2022/08/14 12:44:16;;;;;;;4.90;3.38;;;30.60;77.20;;;;;;8387436;28;20047;-69
2022/08/14 12:48:22;;;;;;;6.18;3.72;;;30.70;77.00;;;;;;8387556;28;20417;-70
2022/08/14 12:52:40;;;;;;;4.95;3.60;;;30.70;76.80;;;;;;8386545;28;20044;-70
2022/08/14 12:57:03;;;;;;;5.68;3.58;;;30.80;76.00;;;;;;8379130;28;20143;-69
2022/08/14 13:01:07;;;;;;;6.43;4.07;;;30.80;75.50;;;;;;8385292;28;20067;-70
2022/08/14 13:05:23;;;;;;;5.15;3.80;;;30.80;75.60;;;;;;8384089;28;20570;-69
2022/08/14 13:09:28;;;;;;;6.32;3.70;;;30.80;74.10;;;;;;8383898;28;20040;-70
2022/08/14 13:13:43;;;;;;;5.13;3.60;;;30.90;74.50;;;;;;8394945;28;20048;-70
2022/08/14 13:17:51;;;;;;;5.10;3.90;;;30.90;73.80;;;;;;8385108;28;20114;-70
2022/08/14 13:21:54;;;;;;;4.60;3.50;;;30.90;73.30;;;;;;8390717;28;20074;-69
2022/08/14 13:26:07;;;;;;;5.97;3.85;;;30.90;72.40;;;;;;8383195;28;20498;-69
2022/08/14 13:30:10;;;;;;;4.97;3.45;;;31.00;72.30;;;;;;8374562;28;20479;-70
2022/08/14 13:34:27;;;;;;;4.97;3.45;;;31.00;71.10;;;;;;8372313;28;20040;-70
2022/08/14 13:38:29;;;;;;;4.68;3.67;;;31.10;70.30;;;;;;8381279;28;20519;-70
2022/08/14 13:42:32;;;;;;;6.05;3.63;;;31.10;70.30;;;;;;8385704;28;20041;-70
2022/08/14 13:46:34;;;;;;;10.18;3.70;;;31.10;70.20;;;;;;8400608;28;20106;-70
2022/08/14 13:50:38;;;;;;;5.00;3.72;;;31.10;69.80;;;;;;8382097;28;20479;-70
2022/08/14 13:54:44;;;;;;;7.13;3.70;;;31.20;69.70;;;;;;8389657;28;20427;-70
2022/08/14 13:58:48;;;;;;;4.68;3.20;;;31.30;69.60;;;;;;8385086;28;20057;-70
2022/08/14 14:02:50;;;;;;;5.25;3.60;;;31.40;70.30;;;;;;8388246;28;20050;-70
2022/08/14 14:06:52;;;;;;;5.18;3.55;;;31.50;69.80;;;;;;8392436;28;20056;-70
2022/08/14 14:10:56;;;;;;;5.45;3.80;;;31.50;69.00;;;;;;8389579;28;20052;-70
2022/08/14 14:14:59;;;;;;;4.90;3.67;;;31.50;67.20;;;;;;8391862;28;20052;-70
2022/08/14 14:19:06;;;;;;;4.93;3.90;;;31.50;68.00;;;;;;8391254;28;20057;-70
2022/08/14 14:23:13;;;;;;;5.18;3.65;;;31.50;67.10;;;;;;8393020;28;20442;-69
2022/08/14 14:27:19;;;;;;;6.10;4.00;;;31.50;67.50;;;;;;8391998;28;20051;-70
2022/08/14 14:31:42;;;;;;;5.82;3.90;;;31.50;67.80;;;;;;8391674;28;20076;-70
2022/08/14 14:35:45;;;;;;;4.90;3.80;;;31.50;67.60;;;;;;8386854;28;20059;-70
2022/08/14 14:39:49;;;;;;;5.18;3.88;;;31.50;67.80;;;;;;8384645;28;20488;-70
2022/08/14 14:44:13;;;;;;;5.45;3.80;;;31.60;67.40;;;;;;8394951;28;20083;-70
2022/08/14 14:48:18;;;;;;;4.57;3.55;;;31.50;67.10;;;;;;8393445;28;20047;-70
2022/08/14 14:52:22;;;;;;;5.32;4.03;;;31.60;67.00;;;;;;8382338;28;20063;-70
2022/08/14 14:56:30;;;;;;;5.03;4.05;;;31.60;67.10;;;;;;8388357;28;20060;-70
2022/08/14 15:00:55;;;;;;;6.82;4.20;;;31.70;67.10;;;;;;8387975;28;20059;-70
2022/08/14 15:04:56;;;;;;;6.73;3.87;;;31.70;66.80;;;;;;8392035;28;20049;-70
2022/08/14 15:09:00;;;;;;;5.25;4.05;;;31.70;66.90;;;;;;8386992;28;20518;-70
2022/08/14 15:13:05;;;;;;;5.53;3.92;;;31.80;66.80;;;;;;8391810;28;20062;-70
2022/08/14 15:17:07;;;;;;;6.78;4.30;;;31.80;66.60;;;;;;8394534;28;20053;-70
2022/08/14 15:21:12;;;;;;;5.07;3.80;;;31.80;66.60;;;;;;8385317;28;20058;-70
2022/08/14 15:25:15;;;;;;;5.38;4.22;;;31.80;66.40;;;;;;8390456;28;20085;-70
2022/08/14 15:29:19;;;;;;;4.70;3.55;;;31.80;66.10;;;;;;8385997;28;20048;-70
2022/08/14 15:38:09;;;;;;;6.63;4.25;;;31.80;65.50;;;;;;8375783;28;20063;-71
2022/08/14 15:42:15;;;;;;;7.88;3.90;;;31.90;65.90;;;;;;8374687;28;20051;-70
2022/08/14 15:46:18;;;;;;;7.75;4.07;;;32.00;65.80;;;;;;8387911;28;20094;-70
2022/08/14 15:50:43;;;;;;;5.00;3.80;;;32.10;65.30;;;;;;8386508;28;20502;-70
2022/08/14 15:54:49;;;;;;;5.93;4.30;;;32.20;64.90;;;;;;8385756;28;20075;-70
2022/08/14 15:58:51;;;;;;;6.00;4.20;;;32.30;64.60;;;;;;8386867;28;20079;-70
2022/08/14 16:02:53;;;;;;;7.68;4.32;;;32.30;64.50;;;;;;8388448;28;20044;-70
2022/08/14 16:06:56;;;;;;;4.82;3.22;;;32.40;65.10;;;;;;8387523;28;20037;-70
2022/08/14 16:10:59;;;;;;;4.93;3.38;;;32.50;65.40;;;;;;8381918;28;20048;-70
2022/08/14 16:15:01;;;;;;;5.93;3.97;;;32.70;65.90;;;;;;8378938;28;20474;-70
2022/08/14 16:19:07;;;;;;;;;;;33.10;66.50;;;;;;8388852;28;20479;-70
2022/08/14 16:23:10;;;;;;;;;;;33.40;66.80;;;;;;8369931;28;19924;-70
2022/08/14 16:27:12;;;;;;;;;;;33.50;66.70;;;;;;8384723;28;20390;-70
2022/08/14 16:31:14;;;;;;;;;;;33.50;66.10;;;;;;8386345;28;19920;-70
2022/08/14 16:35:16;;;;;;;;;;;33.50;66.10;;;;;;8390493;28;19921;-70
2022/08/14 16:39:19;;;;;;;;;;;33.40;65.70;;;;;;8388433;28;20318;-70
2022/08/14 16:43:24;;;;;;;;;;;33.30;65.40;;;;;;8390822;28;19998;-70
2022/08/14 16:47:27;;;;;;;;;;;33.10;65.20;;;;;;8381497;28;19948;-70
2022/08/14 16:51:37;;;;;;;;;;;32.90;65.20;;;;;;8380971;28;19935;-70
2022/08/14 16:55:39;;;;;;;;;;;32.70;64.60;;;;;;8380698;28;19931;-69
2022/08/14 16:59:56;;;;;;;6.30;3.80;;;32.50;64.00;;;;;;8384228;28;19926;-70
2022/08/14 17:04:11;;;;;;;6.00;4.13;;;32.30;64.00;;;;;;8390392;28;20044;-70
2022/08/14 17:08:25;;;;;;;5.70;4.00;;;32.10;64.10;;;;;;8387239;28;20953;-70
2022/08/14 17:12:47;;;;;;;5.20;4.13;;;31.90;64.20;;;;;;8386567;28;20049;-70
2022/08/14 17:16:55;;;;;;;6.40;4.13;;;31.80;64.60;;;;;;8387477;28;20060;-70
2022/08/14 17:21:16;;;;;;;5.15;4.00;;;31.70;64.80;;;;;;8385431;28;20052;-70
2022/08/14 17:25:30;;;;;;;6.72;4.00;;;31.50;65.50;;;;;;8369083;28;20565;-70
2022/08/14 17:29:35;;;;;;;5.18;4.10;;;31.40;66.00;;;;;;8371315;28;20045;-71
2022/08/14 17:33:58;;;;;;;5.15;3.80;;;31.30;66.80;;;;;;8399290;28;20048;-70
2022/08/14 17:38:09;;;;;;;5.55;4.28;;;31.20;67.40;;;;;;8380117;28;20048;-71
2022/08/14 17:42:46;;;;;;;6.85;4.13;;;31.10;68.20;;;;;;8392842;28;20071;-70
2022/08/14 17:47:08;;;;;;;5.47;4.20;;;31.00;68.90;;;;;;8392361;28;20060;-70
2022/08/14 17:51:11;;;;;;;5.10;4.18;;;30.90;69.20;;;;;;8392687;28;20699;-70
2022/08/14 17:55:13;;;;;;;6.93;4.15;;;30.90;69.80;;;;;;8386875;28;20526;-70
2022/08/14 17:59:40;;;;;;;7.28;4.53;;;30.70;71.10;;;;;;8388882;28;20505;-70
2022/08/14 18:03:43;;;;;;;6.45;5.07;;;30.60;70.90;;;;;;8372843;28;20036;-70
2022/08/14 18:07:54;;;;;;;7.45;4.35;;;30.50;71.50;;;;;;8389352;28;20170;-70
2022/08/14 18:12:16;;;;;;;6.38;4.63;;;30.40;72.10;;;;;;8391966;28;20076;-70
2022/08/14 18:16:33;;;;;;;5.65;4.50;;;30.30;72.50;;;;;;8392254;28;20552;-70
2022/08/14 18:20:39;;;;;;;8.13;4.47;;;30.20;72.80;;;;;;8390289;28;20501;-71
2022/08/14 18:25:02;;;;;;;7.47;4.65;;;30.10;73.10;;;;;;8396391;28;20668;-71
2022/08/14 18:29:05;;;;;;;7.13;4.65;;;30.00;73.50;;;;;;8396248;28;20051;-70
2022/08/14 18:33:21;;;;;;;6.90;4.45;;;29.90;74.00;;;;;;8396305;28;20052;-70
2022/08/14 18:37:23;;;;;;;7.00;5.03;;;29.80;74.30;;;;;;8391418;28;20122;-70
2022/08/14 18:41:30;;;;;;;6.88;4.43;;;29.70;74.50;;;;;;8388071;28;20055;-70
2022/08/14 18:45:58;;;;;;;7.25;4.82;;;29.60;74.90;;;;;;8376203;28;20393;-70
2022/08/14 18:50:10;;;;;;;6.20;4.88;;;29.50;75.60;;;;;;8389459;28;20045;-70
2022/08/14 18:54:35;;;;;;;8.00;5.00;;;29.40;75.70;;;;;;8391002;28;20048;-70
2022/08/14 18:58:51;;;;;;;6.13;4.90;;;29.30;75.90;;;;;;8387625;28;20063;-70
2022/08/14 19:03:07;;;;;;;8.32;4.65;;;29.20;76.40;;;;;;8392280;28;20048;-70
2022/08/14 19:07:16;;;;;;;7.65;4.82;;;29.10;76.60;;;;;;8388748;28;20510;-70
2022/08/14 19:11:30;;;;;;;8.57;4.57;;;28.90;76.80;;;;;;8380837;28;20075;-70
2022/08/14 19:15:35;;;;;;;12.10;5.15;;;28.80;77.10;;;;;;8369901;28;20621;-70
2022/08/14 19:19:38;;;;;;;6.50;5.13;;;28.70;77.20;;;;;;8382658;28;20059;-70
2022/08/14 19:23:40;;;;;;;7.05;4.55;;;28.60;77.40;;;;;;8379177;28;20048;-70
2022/08/14 19:28:23;;;;;;;7.18;5.15;;;28.50;77.70;;;;;;8387032;28;20045;-70
2022/08/14 19:32:37;;;;;;;6.55;5.07;;;28.40;78.20;;;;;;8376931;28;20234;-70
2022/08/14 19:36:55;;;;;;;6.25;4.78;;;28.30;78.10;;;;;;8375730;28;20172;-70
2022/08/14 19:41:14;;;;;;;;;;;28.20;78.40;;;;;;8385027;28;20139;-70
2022/08/14 19:45:16;;;;;;;;;;;28.10;78.50;;;;;;8386269;28;19921;-70
2022/08/14 19:49:29;;;;;;;;;;;28.00;78.60;;;;;;8383345;28;19960;-70
2022/08/14 19:53:52;;;;;;;;;;;27.90;78.80;;;;;;8387731;28;20372;-70
2022/08/14 19:57:58;;;;;;;;;;;27.70;78.90;;;;;;8386883;28;20423;-70
2022/08/14 20:01:59;;;;;;;;;;;27.70;79.30;;;;;;8384524;28;19955;-70
2022/08/14 20:06:04;;;;;;;;;;;27.60;79.50;;;;;;8385497;28;19920;-70
2022/08/14 20:10:07;;;;;;;;;;;27.60;79.80;;;;;;8381655;28;20342;-70
2022/08/14 20:14:30;;;;;;;;;;;27.50;79.90;;;;;;8384029;28;20030;-70
2022/08/14 20:18:33;;;;;;;;;;;27.40;80.00;;;;;;8397677;28;19928;-70
2022/08/14 20:22:50;;;;;;;;;;;27.40;80.20;;;;;;8389236;28;19921;-70
2022/08/14 20:27:11;;;;;;;;;;;27.40;80.40;;;;;;8387165;28;19934;-70
2022/08/14 20:31:14;;;;;;;;;;;27.30;80.50;;;;;;8382529;28;19925;-71
2022/08/14 20:35:37;;;;;;;;;;;27.30;80.70;;;;;;8379330;28;20031;-70
2022/08/14 20:39:44;;;;;;;;;;;27.20;80.90;;;;;;8376158;28;19978;-70
2022/08/14 20:48:23;;;;;;;;;;;27.00;81.20;;;;;;8377908;28;20233;-70
2022/08/14 20:52:44;;;;;;;;;;;26.90;81.50;;;;;;8388230;28;19974;-70
2022/08/14 20:56:47;;;;;;;;;;;26.90;81.70;;;;;;8384951;28;19927;-70
2022/08/14 21:00:56;;;;;;;;;;;26.80;81.90;;;;;;8377194;28;20015;-70
2022/08/14 21:04:59;;;;;;;;;;;26.70;82.10;;;;;;8390782;28;20347;-70
2022/08/14 21:09:04;;;;;;;;;;;26.70;82.40;;;;;;8399537;28;19930;-70
2022/08/14 21:13:13;;;;;;;;;;;26.60;82.60;;;;;;8431484;28;19931;-70
2022/08/14 21:17:29;;;;;;;;;;;26.60;82.90;;;;;;8423750;28;19963;-70
2022/08/14 21:21:31;;;;;;;;;;;26.50;83.10;;;;;;8425628;28;19927;-70
2022/08/14 21:25:43;;;;;;;;;;;26.40;83.30;;;;;;8434374;27;19923;-70
2022/08/14 21:29:45;;;;;;;;;;;26.40;83.60;;;;;;8421644;28;19919;-71
2022/08/14 21:33:55;;;;;;;;;;;26.30;83.80;;;;;;8402131;28;20364;-70
2022/08/14 21:37:57;;;;;;;;;;;26.30;84.00;;;;;;8401163;28;20294;-70
2022/08/14 21:41:58;;;;;;;;;;;26.20;84.20;;;;;;8414395;28;19935;-70
2022/08/14 21:46:00;;;;;;;;;;;26.10;84.50;;;;;;8414632;28;20320;-70
2022/08/14 21:50:04;;;;;;;;;;;26.10;84.80;;;;;;8429550;28;19935;-70
2022/08/14 21:54:27;;;;;;;;;;;26.00;85.10;;;;;;8427244;28;19975;-70
2022/08/14 21:58:33;;;;;;;;;;;26.00;85.30;;;;;;8376938;28;20330;-70
2022/08/14 22:02:53;;;;;;;;;;;25.90;85.40;;;;;;8427338;28;19920;-70
2022/08/14 22:06:55;;;;;;;;;;;25.90;85.40;;;;;;8436340;28;19923;-70
2022/08/14 22:10:57;;;;;;;;;;;25.80;85.80;;;;;;8422475;28;19920;-70
2022/08/14 22:15:00;;;;;;;;;;;25.80;86.10;;;;;;8441636;28;19978;-70
2022/08/14 22:19:03;;;;;;;;;;;25.70;86.40;;;;;;8413112;28;20058;-70
2022/08/14 22:23:07;;;;;;;;;;;25.70;86.70;;;;;;8436267;28;19931;-70
2022/08/14 22:27:09;;;;;;;;;;;25.70;87.10;;;;;;8430518;28;19931;-70
2022/08/14 22:31:16;;;;;;;;;;;25.60;87.30;;;;;;8397260;28;19920;-70
2022/08/14 22:35:18;;;;;;;;;;;25.60;87.60;;;;;;8422316;28;20444;-70
2022/08/14 22:39:25;;;;;;;;;;;25.60;87.80;;;;;;8398961;28;19967;-70
2022/08/14 22:43:48;;;;;;;;;;;25.60;88.00;;;;;;8410866;28;20390;-70
2022/08/14 22:47:53;;;;;;;;;;;25.50;88.20;;;;;;8413974;28;19920;-70
2022/08/14 22:51:55;;;;;;;;;;;25.50;88.40;;;;;;8419448;28;20236;-70
2022/08/14 22:55:57;;;;;;;;;;;25.50;88.60;;;;;;8425444;28;19940;-70
2022/08/14 22:59:59;;;;;;;;;;;25.40;88.70;;;;;;8403641;28;19921;-70
2022/08/14 23:04:01;;;;;;;;;;;25.40;89.00;;;;;;8408840;28;19931;-70
2022/08/14 23:08:02;;;;;;;;;;;25.40;89.30;;;;;;8411692;28;19927;-70
2022/08/14 23:12:30;;;;;;;;;;;25.30;89.60;;;;;;8413750;28;20097;-71
2022/08/14 23:16:34;;;;;;;;;;;25.30;89.90;;;;;;8429132;28;20232;-70
2022/08/14 23:20:38;;;;;;;;;;;25.20;90.10;;;;;;8427927;28;19928;-70
2022/08/14 23:24:39;;;;;;;;;;;25.20;90.20;;;;;;8405124;28;19920;-70